sensor_id;sensor_type;location;lat;lon;timestamp;temperature;humidity
25504;DHT22;13410;52.114;5.718;2022-07-10T00:01:50;20.50;99.90
25504;DHT22;13410;52.114;5.718;2022-07-10T00:04:16;20.40;99.90
25504;DHT22;13410;52.114;5.718;2022-07-10T00:06:42;20.50;99.90
25504;DHT22;13410;52.114;5.718;2022-07-10T00:09:14;20.60;99.90
25504;DHT22;13410;52.114;5.718;2022-07-10T00:11:41;20.40;99.90
25504;DHT22;13410;52.114;5.718;2022-07-10T00:14:07;20.30;99.90
25504;DHT22;13410;52.114;5.718;2022-07-10T00:16:33;20.40;99.90
25504;DHT22;13410;52.114;5.718;2022-07-10T00:18:58;20.30;99.90
25504;DHT22;13410;52.114;5.718;2022-07-10T00:21:24;20.20;99.90
25504;DHT22;13410;52.114;5.718;2022-07-10T00:23:50;20.30;99.90
25504;DHT22;13410;52.114;5.718;2022-07-10T00:26:15;20.20;99.90
25504;DHT22;13410;52.114;5.718;2022-07-10T00:28:41;20.20;99.90
25504;DHT22;13410;52.114;5.718;2022-07-10T00:31:06;20.30;99.90
25504;DHT22;13410;52.114;5.718;2022-07-10T00:33:32;20.30;99.90
25504;DHT22;13410;52.114;5.718;2022-07-10T00:36:01;20.30;99.90
25504;DHT22;13410;52.114;5.718;2022-07-10T00:38:26;20.30;99.90
25504;DHT22;13410;52.114;5.718;2022-07-10T00:40:52;20.40;99.90
25504;DHT22;13410;52.114;5.718;2022-07-10T00:43:17;20.30;99.90
25504;DHT22;13410;52.114;5.718;2022-07-10T00:45:43;20.40;99.90
25504;DHT22;13410;52.114;5.718;2022-07-10T00:48:09;20.40;99.90
25504;DHT22;13410;52.114;5.718;2022-07-10T00:50:34;20.40;99.90
25504;DHT22;13410;52.114;5.718;2022-07-10T00:53:00;20.50;99.90
25504;DHT22;13410;52.114;5.718;2022-07-10T00:55:28;20.50;99.90
25504;DHT22;13410;52.114;5.718;2022-07-10T00:57:54;20.30;99.90
25504;DHT22;13410;52.114;5.718;2022-07-10T01:00:20;20.20;99.90
25504;DHT22;13410;52.114;5.718;2022-07-10T01:02:47;20.00;99.90
25504;DHT22;13410;52.114;5.718;2022-07-10T01:05:13;19.90;99.90
25504;DHT22;13410;52.114;5.718;2022-07-10T01:07:39;19.90;99.90
25504;DHT22;13410;52.114;5.718;2022-07-10T01:10:05;19.80;99.90
25504;DHT22;13410;52.114;5.718;2022-07-10T01:12:31;19.90;99.90
25504;DHT22;13410;52.114;5.718;2022-07-10T01:14:57;20.10;99.90
25504;DHT22;13410;52.114;5.718;2022-07-10T01:17:24;20.00;99.90
25504;DHT22;13410;52.114;5.718;2022-07-10T01:19:49;19.90;99.90
25504;DHT22;13410;52.114;5.718;2022-07-10T01:22:15;19.80;99.90
25504;DHT22;13410;52.114;5.718;2022-07-10T01:24:41;20.10;99.90
25504;DHT22;13410;52.114;5.718;2022-07-10T01:27:06;20.00;99.90
25504;DHT22;13410;52.114;5.718;2022-07-10T01:29:34;19.90;99.90
25504;DHT22;13410;52.114;5.718;2022-07-10T01:32:00;19.90;99.90
25504;DHT22;13410;52.114;5.718;2022-07-10T01:34:27;19.90;99.90
25504;DHT22;13410;52.114;5.718;2022-07-10T01:36:52;20.10;99.90
25504;DHT22;13410;52.114;5.718;2022-07-10T01:39:18;20.10;99.90
25504;DHT22;13410;52.114;5.718;2022-07-10T01:41:44;20.20;99.90
25504;DHT22;13410;52.114;5.718;2022-07-10T01:44:09;20.00;99.90
25504;DHT22;13410;52.114;5.718;2022-07-10T01:46:35;20.10;99.90
25504;DHT22;13410;52.114;5.718;2022-07-10T01:49:01;20.00;99.90
25504;DHT22;13410;52.114;5.718;2022-07-10T01:51:27;20.20;99.90
25504;DHT22;13410;52.114;5.718;2022-07-10T01:53:52;20.30;99.90
25504;DHT22;13410;52.114;5.718;2022-07-10T01:56:18;20.20;99.90
25504;DHT22;13410;52.114;5.718;2022-07-10T01:58:44;20.20;99.90
25504;DHT22;13410;52.114;5.718;2022-07-10T02:01:10;20.20;99.90
25504;DHT22;13410;52.114;5.718;2022-07-10T02:03:36;20.20;99.90
25504;DHT22;13410;52.114;5.718;2022-07-10T02:06:19;20.20;99.90
25504;DHT22;13410;52.114;5.718;2022-07-10T02:08:45;20.30;99.90
25504;DHT22;13410;52.114;5.718;2022-07-10T02:11:11;20.20;99.90
25504;DHT22;13410;52.114;5.718;2022-07-10T02:13:38;20.20;99.90
25504;DHT22;13410;52.114;5.718;2022-07-10T02:16:03;20.20;99.90
25504;DHT22;13410;52.114;5.718;2022-07-10T02:18:29;20.10;99.90
25504;DHT22;13410;52.114;5.718;2022-07-10T02:20:55;20.20;99.90
25504;DHT22;13410;52.114;5.718;2022-07-10T02:23:21;20.20;99.90
25504;DHT22;13410;52.114;5.718;2022-07-10T02:25:47;20.20;99.90
25504;DHT22;13410;52.114;5.718;2022-07-10T02:28:12;20.40;99.90
25504;DHT22;13410;52.114;5.718;2022-07-10T02:30:38;20.20;99.90
25504;DHT22;13410;52.114;5.718;2022-07-10T02:33:03;20.20;99.90
25504;DHT22;13410;52.114;5.718;2022-07-10T02:35:29;20.20;99.90
25504;DHT22;13410;52.114;5.718;2022-07-10T02:37:55;20.20;99.90
25504;DHT22;13410;52.114;5.718;2022-07-10T02:40:20;20.20;99.90
25504;DHT22;13410;52.114;5.718;2022-07-10T02:42:46;20.20;99.90
25504;DHT22;13410;52.114;5.718;2022-07-10T02:45:12;20.30;99.90
25504;DHT22;13410;52.114;5.718;2022-07-10T02:47:37;20.30;99.90
25504;DHT22;13410;52.114;5.718;2022-07-10T02:50:03;20.30;99.90
25504;DHT22;13410;52.114;5.718;2022-07-10T02:52:29;20.20;99.90
25504;DHT22;13410;52.114;5.718;2022-07-10T02:54:58;20.20;99.90
25504;DHT22;13410;52.114;5.718;2022-07-10T02:57:24;20.20;99.90
25504;DHT22;13410;52.114;5.718;2022-07-10T02:59:49;20.10;99.90
25504;DHT22;13410;52.114;5.718;2022-07-10T03:02:15;20.20;99.90
25504;DHT22;13410;52.114;5.718;2022-07-10T03:04:41;20.20;99.90
25504;DHT22;13410;52.114;5.718;2022-07-10T03:07:06;20.30;99.90
25504;DHT22;13410;52.114;5.718;2022-07-10T03:09:32;20.40;99.90
25504;DHT22;13410;52.114;5.718;2022-07-10T03:11:58;20.30;99.90
25504;DHT22;13410;52.114;5.718;2022-07-10T03:14:23;20.30;99.90
25504;DHT22;13410;52.114;5.718;2022-07-10T03:16:49;20.20;99.90
25504;DHT22;13410;52.114;5.718;2022-07-10T03:19:14;20.00;99.90
25504;DHT22;13410;52.114;5.718;2022-07-10T03:21:40;20.10;99.90
25504;DHT22;13410;52.114;5.718;2022-07-10T03:24:05;20.20;99.90
25504;DHT22;13410;52.114;5.718;2022-07-10T03:26:31;20.10;99.90
25504;DHT22;13410;52.114;5.718;2022-07-10T03:28:57;20.10;99.90
25504;DHT22;13410;52.114;5.718;2022-07-10T03:31:22;20.20;99.90
25504;DHT22;13410;52.114;5.718;2022-07-10T03:33:48;20.20;99.90
25504;DHT22;13410;52.114;5.718;2022-07-10T03:36:14;20.20;99.90
25504;DHT22;13410;52.114;5.718;2022-07-10T03:38:39;20.20;99.90
25504;DHT22;13410;52.114;5.718;2022-07-10T04:08:46;20.20;99.90
25504;DHT22;13410;52.114;5.718;2022-07-10T04:11:11;20.10;99.90
25504;DHT22;13410;52.114;5.718;2022-07-10T04:13:37;20.20;99.90
25504;DHT22;13410;52.114;5.718;2022-07-10T04:16:03;20.30;99.90
25504;DHT22;13410;52.114;5.718;2022-07-10T04:18:29;20.40;99.90
25504;DHT22;13410;52.114;5.718;2022-07-10T04:20:54;20.20;99.90
25504;DHT22;13410;52.114;5.718;2022-07-10T04:23:20;20.30;99.90
25504;DHT22;13410;52.114;5.718;2022-07-10T04:25:45;20.30;99.90
25504;DHT22;13410;52.114;5.718;2022-07-10T04:28:11;20.30;99.90
25504;DHT22;13410;52.114;5.718;2022-07-10T04:30:36;20.40;99.90
25504;DHT22;13410;52.114;5.718;2022-07-10T04:33:02;20.50;99.90
25504;DHT22;13410;52.114;5.718;2022-07-10T04:35:27;20.60;99.90
25504;DHT22;13410;52.114;5.718;2022-07-10T04:37:53;20.50;99.90
25504;DHT22;13410;52.114;5.718;2022-07-10T04:40:18;20.50;99.90
25504;DHT22;13410;52.114;5.718;2022-07-10T04:42:44;20.40;99.90
25504;DHT22;13410;52.114;5.718;2022-07-10T04:45:10;20.30;99.90
25504;DHT22;13410;52.114;5.718;2022-07-10T04:47:35;20.40;99.90
25504;DHT22;13410;52.114;5.718;2022-07-10T04:50:01;20.30;99.90
25504;DHT22;13410;52.114;5.718;2022-07-10T04:52:26;20.30;99.90
25504;DHT22;13410;52.114;5.718;2022-07-10T04:54:52;20.40;99.90
25504;DHT22;13410;52.114;5.718;2022-07-10T04:57:17;20.20;99.90
25504;DHT22;13410;52.114;5.718;2022-07-10T04:59:43;20.30;99.90
25504;DHT22;13410;52.114;5.718;2022-07-10T05:02:08;20.30;99.90
25504;DHT22;13410;52.114;5.718;2022-07-10T05:04:34;20.10;99.90
25504;DHT22;13410;52.114;5.718;2022-07-10T05:06:59;20.20;99.90
25504;DHT22;13410;52.114;5.718;2022-07-10T05:09:25;20.10;99.90
25504;DHT22;13410;52.114;5.718;2022-07-10T05:11:51;20.40;99.90
25504;DHT22;13410;52.114;5.718;2022-07-10T05:14:17;20.70;99.90
25504;DHT22;13410;52.114;5.718;2022-07-10T05:16:42;20.70;99.90
25504;DHT22;13410;52.114;5.718;2022-07-10T05:19:08;20.70;99.90
25504;DHT22;13410;52.114;5.718;2022-07-10T05:21:33;20.70;99.90
25504;DHT22;13410;52.114;5.718;2022-07-10T05:23:59;20.50;99.90
25504;DHT22;13410;52.114;5.718;2022-07-10T05:26:24;20.50;99.90
25504;DHT22;13410;52.114;5.718;2022-07-10T05:28:50;20.50;99.90
25504;DHT22;13410;52.114;5.718;2022-07-10T05:31:15;20.50;99.90
25504;DHT22;13410;52.114;5.718;2022-07-10T05:33:41;20.40;99.90
25504;DHT22;13410;52.114;5.718;2022-07-10T05:36:08;20.40;99.90
25504;DHT22;13410;52.114;5.718;2022-07-10T05:38:34;20.20;99.90
25504;DHT22;13410;52.114;5.718;2022-07-10T05:40:59;20.10;99.90
25504;DHT22;13410;52.114;5.718;2022-07-10T05:43:25;20.00;99.90
25504;DHT22;13410;52.114;5.718;2022-07-10T05:45:51;19.70;99.90
25504;DHT22;13410;52.114;5.718;2022-07-10T05:48:16;19.50;99.90
25504;DHT22;13410;52.114;5.718;2022-07-10T05:50:42;19.60;99.90
25504;DHT22;13410;52.114;5.718;2022-07-10T05:53:07;19.70;99.90
25504;DHT22;13410;52.114;5.718;2022-07-10T05:55:33;19.70;99.90
25504;DHT22;13410;52.114;5.718;2022-07-10T05:57:58;19.80;99.90
25504;DHT22;13410;52.114;5.718;2022-07-10T06:00:24;19.60;99.90
25504;DHT22;13410;52.114;5.718;2022-07-10T06:02:50;19.70;99.90
25504;DHT22;13410;52.114;5.718;2022-07-10T06:05:15;19.80;99.90
25504;DHT22;13410;52.114;5.718;2022-07-10T06:07:41;20.00;99.90
25504;DHT22;13410;52.114;5.718;2022-07-10T06:10:07;20.20;99.90
25504;DHT22;13410;52.114;5.718;2022-07-10T06:12:32;20.30;99.90
25504;DHT22;13410;52.114;5.718;2022-07-10T06:14:58;20.20;99.90
25504;DHT22;13410;52.114;5.718;2022-07-10T06:17:24;20.20;99.90
25504;DHT22;13410;52.114;5.718;2022-07-10T06:19:50;20.20;99.90
25504;DHT22;13410;52.114;5.718;2022-07-10T06:22:15;20.20;99.90
25504;DHT22;13410;52.114;5.718;2022-07-10T06:24:57;19.80;99.90
25504;DHT22;13410;52.114;5.718;2022-07-10T06:27:22;19.60;99.90
25504;DHT22;13410;52.114;5.718;2022-07-10T06:29:48;19.40;99.90
25504;DHT22;13410;52.114;5.718;2022-07-10T06:32:14;19.40;99.90
25504;DHT22;13410;52.114;5.718;2022-07-10T06:34:39;19.20;99.90
25504;DHT22;13410;52.114;5.718;2022-07-10T06:37:05;19.00;99.90
25504;DHT22;13410;52.114;5.718;2022-07-10T06:39:34;18.90;99.90
25504;DHT22;13410;52.114;5.718;2022-07-10T06:42:03;18.90;99.90
25504;DHT22;13410;52.114;5.718;2022-07-10T06:44:29;18.70;99.90
25504;DHT22;13410;52.114;5.718;2022-07-10T06:46:55;19.00;99.90
25504;DHT22;13410;52.114;5.718;2022-07-10T06:49:40;19.00;99.90
25504;DHT22;13410;52.114;5.718;2022-07-10T06:52:06;19.10;99.90
25504;DHT22;13410;52.114;5.718;2022-07-10T06:54:33;19.20;99.90
25504;DHT22;13410;52.114;5.718;2022-07-10T06:56:58;19.30;99.90
25504;DHT22;13410;52.114;5.718;2022-07-10T06:59:24;19.40;99.90
25504;DHT22;13410;52.114;5.718;2022-07-10T07:01:50;19.50;99.90
25504;DHT22;13410;52.114;5.718;2022-07-10T07:04:16;19.70;99.90
25504;DHT22;13410;52.114;5.718;2022-07-10T07:06:41;19.90;99.90
25504;DHT22;13410;52.114;5.718;2022-07-10T07:09:07;20.00;99.90
25504;DHT22;13410;52.114;5.718;2022-07-10T07:11:32;20.20;99.90
25504;DHT22;13410;52.114;5.718;2022-07-10T07:13:58;20.20;99.90
25504;DHT22;13410;52.114;5.718;2022-07-10T07:16:23;20.20;99.90
25504;DHT22;13410;52.114;5.718;2022-07-10T07:19:03;20.30;99.90
25504;DHT22;13410;52.114;5.718;2022-07-10T07:21:30;20.00;99.90
25504;DHT22;13410;52.114;5.718;2022-07-10T07:24:14;19.90;99.90
25504;DHT22;13410;52.114;5.718;2022-07-10T07:26:40;20.00;99.90
25504;DHT22;13410;52.114;5.718;2022-07-10T07:29:06;19.90;99.90
25504;DHT22;13410;52.114;5.718;2022-07-10T07:31:31;19.70;99.90
25504;DHT22;13410;52.114;5.718;2022-07-10T07:33:57;19.60;99.90
25504;DHT22;13410;52.114;5.718;2022-07-10T07:36:23;19.50;99.90
25504;DHT22;13410;52.114;5.718;2022-07-10T07:38:48;19.10;99.90
25504;DHT22;13410;52.114;5.718;2022-07-10T07:41:14;19.20;99.90
25504;DHT22;13410;52.114;5.718;2022-07-10T07:43:40;19.70;99.90
25504;DHT22;13410;52.114;5.718;2022-07-10T07:46:06;20.00;99.90
25504;DHT22;13410;52.114;5.718;2022-07-10T07:48:32;20.10;99.90
25504;DHT22;13410;52.114;5.718;2022-07-10T07:50:57;20.40;99.90
25504;DHT22;13410;52.114;5.718;2022-07-10T07:53:23;20.40;99.90
25504;DHT22;13410;52.114;5.718;2022-07-10T07:55:49;20.00;99.90
25504;DHT22;13410;52.114;5.718;2022-07-10T07:58:17;20.00;99.90
25504;DHT22;13410;52.114;5.718;2022-07-10T08:00:42;19.80;99.90
25504;DHT22;13410;52.114;5.718;2022-07-10T08:03:08;19.80;99.90
25504;DHT22;13410;52.114;5.718;2022-07-10T08:05:34;19.90;99.90
25504;DHT22;13410;52.114;5.718;2022-07-10T08:08:00;20.00;99.90
25504;DHT22;13410;52.114;5.718;2022-07-10T08:10:30;20.20;99.90
25504;DHT22;13410;52.114;5.718;2022-07-10T08:12:56;20.20;99.90
25504;DHT22;13410;52.114;5.718;2022-07-10T08:15:22;20.20;99.90
25504;DHT22;13410;52.114;5.718;2022-07-10T08:17:49;20.10;99.90
25504;DHT22;13410;52.114;5.718;2022-07-10T08:20:15;20.20;99.90
25504;DHT22;13410;52.114;5.718;2022-07-10T08:22:41;20.10;99.90
25504;DHT22;13410;52.114;5.718;2022-07-10T08:25:08;20.00;99.90
25504;DHT22;13410;52.114;5.718;2022-07-10T08:27:34;20.00;99.90
25504;DHT22;13410;52.114;5.718;2022-07-10T08:29:59;19.80;99.90
25504;DHT22;13410;52.114;5.718;2022-07-10T08:32:25;20.00;99.90
25504;DHT22;13410;52.114;5.718;2022-07-10T08:34:52;20.30;99.90
25504;DHT22;13410;52.114;5.718;2022-07-10T08:37:18;20.60;99.90
25504;DHT22;13410;52.114;5.718;2022-07-10T08:39:45;20.70;99.90
25504;DHT22;13410;52.114;5.718;2022-07-10T08:42:11;20.80;99.90
25504;DHT22;13410;52.114;5.718;2022-07-10T08:44:37;20.80;99.90
25504;DHT22;13410;52.114;5.718;2022-07-10T08:47:03;21.20;99.90
25504;DHT22;13410;52.114;5.718;2022-07-10T08:49:30;21.20;99.90
25504;DHT22;13410;52.114;5.718;2022-07-10T08:52:04;21.10;99.90
25504;DHT22;13410;52.114;5.718;2022-07-10T08:54:31;21.10;99.90
25504;DHT22;13410;52.114;5.718;2022-07-10T08:57:02;21.20;99.90
25504;DHT22;13410;52.114;5.718;2022-07-10T08:59:29;21.50;99.90
25504;DHT22;13410;52.114;5.718;2022-07-10T09:01:55;21.70;99.90
25504;DHT22;13410;52.114;5.718;2022-07-10T09:04:23;22.00;99.90
25504;DHT22;13410;52.114;5.718;2022-07-10T09:06:50;22.60;99.90
25504;DHT22;13410;52.114;5.718;2022-07-10T09:09:17;22.80;99.90
25504;DHT22;13410;52.114;5.718;2022-07-10T09:11:43;22.60;99.90
25504;DHT22;13410;52.114;5.718;2022-07-10T09:14:15;22.60;99.90
25504;DHT22;13410;52.114;5.718;2022-07-10T09:16:42;23.10;99.90
25504;DHT22;13410;52.114;5.718;2022-07-10T09:19:16;23.20;99.90
25504;DHT22;13410;52.114;5.718;2022-07-10T09:21:42;23.40;99.90
25504;DHT22;13410;52.114;5.718;2022-07-10T09:24:08;23.50;99.90
25504;DHT22;13410;52.114;5.718;2022-07-10T09:26:36;23.50;99.90
25504;DHT22;13410;52.114;5.718;2022-07-10T09:29:06;23.10;99.90
25504;DHT22;13410;52.114;5.718;2022-07-10T09:31:47;22.70;99.90
25504;DHT22;13410;52.114;5.718;2022-07-10T09:34:13;22.30;99.90
25504;DHT22;13410;52.114;5.718;2022-07-10T09:36:38;22.50;99.90
25504;DHT22;13410;52.114;5.718;2022-07-10T09:39:05;23.00;99.90
25504;DHT22;13410;52.114;5.718;2022-07-10T09:41:31;23.10;99.90
25504;DHT22;13410;52.114;5.718;2022-07-10T09:44:05;23.20;99.90
25504;DHT22;13410;52.114;5.718;2022-07-10T09:46:35;23.60;99.90
25504;DHT22;13410;52.114;5.718;2022-07-10T09:49:03;23.60;99.90
25504;DHT22;13410;52.114;5.718;2022-07-10T09:51:31;23.70;99.90
25504;DHT22;13410;52.114;5.718;2022-07-10T09:54:00;23.80;99.90
25504;DHT22;13410;52.114;5.718;2022-07-10T09:56:26;23.80;99.90
25504;DHT22;13410;52.114;5.718;2022-07-10T09:58:56;23.80;99.90
25504;DHT22;13410;52.114;5.718;2022-07-10T10:01:25;24.10;99.90
25504;DHT22;13410;52.114;5.718;2022-07-10T10:03:53;24.30;99.90
25504;DHT22;13410;52.114;5.718;2022-07-10T10:06:21;24.60;99.90
25504;DHT22;13410;52.114;5.718;2022-07-10T10:09:03;24.40;99.90
25504;DHT22;13410;52.114;5.718;2022-07-10T10:11:32;24.10;99.90
25504;DHT22;13410;52.114;5.718;2022-07-10T10:13:59;24.10;99.90
25504;DHT22;13410;52.114;5.718;2022-07-10T10:16:27;24.00;99.90
25504;DHT22;13410;52.114;5.718;2022-07-10T10:18:52;23.90;99.90
25504;DHT22;13410;52.114;5.718;2022-07-10T10:21:38;24.00;99.90
25504;DHT22;13410;52.114;5.718;2022-07-10T10:24:07;24.40;99.90
25504;DHT22;13410;52.114;5.718;2022-07-10T10:26:33;24.70;99.90
25504;DHT22;13410;52.114;5.718;2022-07-10T10:29:01;25.20;99.90
25504;DHT22;13410;52.114;5.718;2022-07-10T10:31:29;25.10;99.90
25504;DHT22;13410;52.114;5.718;2022-07-10T10:33:55;25.20;99.90
25504;DHT22;13410;52.114;5.718;2022-07-10T10:39:12;24.50;99.90
25504;DHT22;13410;52.114;5.718;2022-07-10T10:41:56;24.00;99.90
25504;DHT22;13410;52.114;5.718;2022-07-10T10:44:26;23.50;99.90
25504;DHT22;13410;52.114;5.718;2022-07-10T10:46:56;23.10;99.90
25504;DHT22;13410;52.114;5.718;2022-07-10T10:49:23;22.90;99.90
25504;DHT22;13410;52.114;5.718;2022-07-10T10:52:03;22.80;99.90
25504;DHT22;13410;52.114;5.718;2022-07-10T11:00:01;23.90;99.90
25504;DHT22;13410;52.114;5.718;2022-07-10T11:02:30;24.30;99.90
25504;DHT22;13410;52.114;5.718;2022-07-10T11:08:00;24.40;99.90
25504;DHT22;13410;52.114;5.718;2022-07-10T11:13:11;23.60;99.90
25504;DHT22;13410;52.114;5.718;2022-07-10T11:20:38;23.20;99.90
25504;DHT22;13410;52.114;5.718;2022-07-10T11:26:08;23.30;99.90
25504;DHT22;13410;52.114;5.718;2022-07-10T11:28:49;23.30;99.90
25504;DHT22;13410;52.114;5.718;2022-07-10T11:31:15;23.70;99.90
25504;DHT22;13410;52.114;5.718;2022-07-10T11:33:43;24.00;99.90
25504;DHT22;13410;52.114;5.718;2022-07-10T11:36:14;24.40;99.90
25504;DHT22;13410;52.114;5.718;2022-07-10T11:38:41;24.60;99.90
25504;DHT22;13410;52.114;5.718;2022-07-10T11:41:34;24.70;99.90
25504;DHT22;13410;52.114;5.718;2022-07-10T11:44:01;24.80;99.90
25504;DHT22;13410;52.114;5.718;2022-07-10T11:46:30;24.70;99.90
25504;DHT22;13410;52.114;5.718;2022-07-10T11:48:56;24.20;99.90
25504;DHT22;13410;52.114;5.718;2022-07-10T11:51:24;23.80;99.90
25504;DHT22;13410;52.114;5.718;2022-07-10T11:54:14;23.60;99.90
25504;DHT22;13410;52.114;5.718;2022-07-10T11:56:50;23.40;99.90
25504;DHT22;13410;52.114;5.718;2022-07-10T11:59:23;23.30;99.90
25504;DHT22;13410;52.114;5.718;2022-07-10T12:01:52;23.20;99.90
25504;DHT22;13410;52.114;5.718;2022-07-10T12:04:19;23.20;99.90
25504;DHT22;13410;52.114;5.718;2022-07-10T12:06:49;23.20;99.90
25504;DHT22;13410;52.114;5.718;2022-07-10T12:09:16;23.20;99.90
25504;DHT22;13410;52.114;5.718;2022-07-10T12:11:44;23.30;99.90
25504;DHT22;13410;52.114;5.718;2022-07-10T12:14:22;23.10;99.90
25504;DHT22;13410;52.114;5.718;2022-07-10T12:16:53;23.50;99.90
25504;DHT22;13410;52.114;5.718;2022-07-10T12:19:25;23.80;99.90
25504;DHT22;13410;52.114;5.718;2022-07-10T12:21:53;24.00;99.90
25504;DHT22;13410;52.114;5.718;2022-07-10T12:24:19;24.10;99.90
25504;DHT22;13410;52.114;5.718;2022-07-10T12:26:46;24.10;99.90
25504;DHT22;13410;52.114;5.718;2022-07-10T12:29:19;24.00;99.90
25504;DHT22;13410;52.114;5.718;2022-07-10T12:31:46;24.10;99.90
25504;DHT22;13410;52.114;5.718;2022-07-10T12:34:11;24.20;99.90
25504;DHT22;13410;52.114;5.718;2022-07-10T12:36:51;24.50;99.90
25504;DHT22;13410;52.114;5.718;2022-07-10T12:39:19;24.80;99.90
25504;DHT22;13410;52.114;5.718;2022-07-10T12:42:02;25.10;99.90
25504;DHT22;13410;52.114;5.718;2022-07-10T12:44:43;25.30;99.90
25504;DHT22;13410;52.114;5.718;2022-07-10T12:47:10;25.40;99.90
25504;DHT22;13410;52.114;5.718;2022-07-10T12:49:54;25.30;99.90
25504;DHT22;13410;52.114;5.718;2022-07-10T12:52:25;25.40;99.90
25504;DHT22;13410;52.114;5.718;2022-07-10T12:55:15;25.00;99.90
25504;DHT22;13410;52.114;5.718;2022-07-10T13:00:16;24.70;99.90
25504;DHT22;13410;52.114;5.718;2022-07-10T13:02:41;24.40;99.90
25504;DHT22;13410;52.114;5.718;2022-07-10T13:05:07;23.90;99.90
25504;DHT22;13410;52.114;5.718;2022-07-10T13:07:35;23.80;99.90
25504;DHT22;13410;52.114;5.718;2022-07-10T13:10:05;23.60;99.90
25504;DHT22;13410;52.114;5.718;2022-07-10T13:12:34;24.00;99.90
25504;DHT22;13410;52.114;5.718;2022-07-10T13:15:03;24.60;99.90
25504;DHT22;13410;52.114;5.718;2022-07-10T13:17:29;25.10;99.90
25504;DHT22;13410;52.114;5.718;2022-07-10T13:19:54;25.40;99.90
25504;DHT22;13410;52.114;5.718;2022-07-10T13:22:20;25.70;99.90
25504;DHT22;13410;52.114;5.718;2022-07-10T13:24:46;26.10;99.90
25504;DHT22;13410;52.114;5.718;2022-07-10T13:27:12;26.30;99.90
25504;DHT22;13410;52.114;5.718;2022-07-10T13:29:37;26.30;99.90
25504;DHT22;13410;52.114;5.718;2022-07-10T13:32:03;26.20;99.90
25504;DHT22;13410;52.114;5.718;2022-07-10T13:34:29;25.80;99.90
25504;DHT22;13410;52.114;5.718;2022-07-10T13:36:55;25.40;99.90
25504;DHT22;13410;52.114;5.718;2022-07-10T13:39:21;25.20;99.90
25504;DHT22;13410;52.114;5.718;2022-07-10T13:41:47;24.90;99.90
25504;DHT22;13410;52.114;5.718;2022-07-10T13:44:12;24.70;99.90
25504;DHT22;13410;52.114;5.718;2022-07-10T13:46:38;24.50;99.90
25504;DHT22;13410;52.114;5.718;2022-07-10T13:49:05;24.80;99.90
25504;DHT22;13410;52.114;5.718;2022-07-10T13:51:31;25.30;99.90
25504;DHT22;13410;52.114;5.718;2022-07-10T13:53:57;25.80;99.90
25504;DHT22;13410;52.114;5.718;2022-07-10T13:56:22;25.80;99.90
25504;DHT22;13410;52.114;5.718;2022-07-10T13:58:49;25.50;99.90
25504;DHT22;13410;52.114;5.718;2022-07-10T14:01:14;25.50;99.90
25504;DHT22;13410;52.114;5.718;2022-07-10T14:03:40;25.80;99.90
25504;DHT22;13410;52.114;5.718;2022-07-10T14:06:06;26.00;99.90
25504;DHT22;13410;52.114;5.718;2022-07-10T14:08:32;26.40;99.90
25504;DHT22;13410;52.114;5.718;2022-07-10T14:10:57;26.30;99.90
25504;DHT22;13410;52.114;5.718;2022-07-10T14:13:23;26.30;99.90
25504;DHT22;13410;52.114;5.718;2022-07-10T14:15:49;26.30;99.90
25504;DHT22;13410;52.114;5.718;2022-07-10T14:18:14;26.30;99.90
25504;DHT22;13410;52.114;5.718;2022-07-10T14:21:00;25.90;99.90
25504;DHT22;13410;52.114;5.718;2022-07-10T14:23:29;25.90;99.90
25504;DHT22;13410;52.114;5.718;2022-07-10T14:25:54;25.20;99.90
25504;DHT22;13410;52.114;5.718;2022-07-10T14:28:20;24.90;99.90
25504;DHT22;13410;52.114;5.718;2022-07-10T14:30:46;24.80;99.90
25504;DHT22;13410;52.114;5.718;2022-07-10T14:33:11;25.10;99.90
25504;DHT22;13410;52.114;5.718;2022-07-10T14:35:37;25.30;99.90
25504;DHT22;13410;52.114;5.718;2022-07-10T14:38:03;25.50;99.90
25504;DHT22;13410;52.114;5.718;2022-07-10T14:40:29;25.60;99.90
25504;DHT22;13410;52.114;5.718;2022-07-10T14:42:54;25.80;99.90
25504;DHT22;13410;52.114;5.718;2022-07-10T14:45:22;26.00;99.90
25504;DHT22;13410;52.114;5.718;2022-07-10T14:47:49;26.00;99.90
25504;DHT22;13410;52.114;5.718;2022-07-10T14:50:15;26.00;99.90
25504;DHT22;13410;52.114;5.718;2022-07-10T14:52:42;25.80;99.90
25504;DHT22;13410;52.114;5.718;2022-07-10T14:55:08;25.40;99.90
25504;DHT22;13410;52.114;5.718;2022-07-10T14:57:34;25.40;99.90
25504;DHT22;13410;52.114;5.718;2022-07-10T14:59:59;25.20;99.90
25504;DHT22;13410;52.114;5.718;2022-07-10T15:02:25;25.10;99.90
25504;DHT22;13410;52.114;5.718;2022-07-10T15:04:50;25.10;99.90
25504;DHT22;13410;52.114;5.718;2022-07-10T15:07:16;25.50;99.90
25504;DHT22;13410;52.114;5.718;2022-07-10T15:09:43;25.80;99.90
25504;DHT22;13410;52.114;5.718;2022-07-10T15:12:09;26.20;99.90
25504;DHT22;13410;52.114;5.718;2022-07-10T15:14:36;26.30;99.90
25504;DHT22;13410;52.114;5.718;2022-07-10T15:17:01;26.60;99.90
25504;DHT22;13410;52.114;5.718;2022-07-10T15:19:27;26.10;99.90
25504;DHT22;13410;52.114;5.718;2022-07-10T15:21:52;25.90;99.90
25504;DHT22;13410;52.114;5.718;2022-07-10T15:24:18;26.20;99.90
25504;DHT22;13410;52.114;5.718;2022-07-10T15:26:44;26.60;99.90
25504;DHT22;13410;52.114;5.718;2022-07-10T15:29:17;26.70;99.90
25504;DHT22;13410;52.114;5.718;2022-07-10T15:31:43;26.40;99.90
25504;DHT22;13410;52.114;5.718;2022-07-10T15:34:10;26.40;99.90
25504;DHT22;13410;52.114;5.718;2022-07-10T15:36:39;26.40;99.90
25504;DHT22;13410;52.114;5.718;2022-07-10T15:39:05;26.60;99.90
25504;DHT22;13410;52.114;5.718;2022-07-10T15:41:31;26.90;99.90
25504;DHT22;13410;52.114;5.718;2022-07-10T15:43:58;27.20;99.90
25504;DHT22;13410;52.114;5.718;2022-07-10T15:46:24;27.50;99.90
25504;DHT22;13410;52.114;5.718;2022-07-10T15:48:49;27.70;99.90
25504;DHT22;13410;52.114;5.718;2022-07-10T15:51:15;27.70;99.90
25504;DHT22;13410;52.114;5.718;2022-07-10T15:53:41;27.70;99.90
25504;DHT22;13410;52.114;5.718;2022-07-10T15:56:06;27.50;99.90
25504;DHT22;13410;52.114;5.718;2022-07-10T15:58:32;27.10;99.90
25504;DHT22;13410;52.114;5.718;2022-07-10T16:00:58;26.80;99.90
25504;DHT22;13410;52.114;5.718;2022-07-10T16:03:23;27.10;99.90
25504;DHT22;13410;52.114;5.718;2022-07-10T16:05:49;27.00;99.90
25504;DHT22;13410;52.114;5.718;2022-07-10T16:08:15;26.80;99.90
25504;DHT22;13410;52.114;5.718;2022-07-10T16:10:47;26.60;99.90
25504;DHT22;13410;52.114;5.718;2022-07-10T16:13:13;26.40;99.90
25504;DHT22;13410;52.114;5.718;2022-07-10T16:15:39;26.40;99.90
25504;DHT22;13410;52.114;5.718;2022-07-10T16:18:05;26.60;99.90
25504;DHT22;13410;52.114;5.718;2022-07-10T16:20:30;26.70;99.90
25504;DHT22;13410;52.114;5.718;2022-07-10T16:23:02;26.80;99.90